Time;durP1;ratioP1;P1;durP2;ratioP2;P2;SDS_P1;SDS_P2;PMS_P1;PMS_P2;Temp;Humidity;BMP_temperature;BMP_pressure;BME280_temperature;BME280_humidity;BME280_pressure;Samples;Min_cycle;Max_cycle;Signal;HPM_P1;HPM_P2
2022/08/01 00:00:32;;;;;;;1999.90;999.90;;;17.70;99.90;;;;;;5118684;27;20039;-74
2022/08/01 00:02:57;;;;;;;1999.90;999.90;;;17.70;99.90;;;;;;5093951;27;20495;-74
2022/08/01 00:05:23;;;;;;;1999.90;999.90;;;17.70;99.90;;;;;;5126552;27;20058;-74
2022/08/01 00:07:49;;;;;;;1999.90;999.90;;;17.80;99.90;;;;;;5109527;27;20057;-75
2022/08/01 00:10:16;;;;;;;1999.90;999.90;;;17.70;99.90;;;;;;5118632;27;20042;-74
2022/08/01 00:12:43;;;;;;;1999.90;999.90;;;17.80;99.90;;;;;;5128395;27;20051;-75
2022/08/01 00:15:11;;;;;;;1999.90;999.90;;;17.70;99.90;;;;;;5118821;27;20474;-74
2022/08/01 00:17:36;;;;;;;1999.90;999.90;;;17.70;99.90;;;;;;5115351;27;20393;-75
2022/08/01 00:20:04;;;;;;;1999.90;999.90;;;17.80;99.90;;;;;;5127563;27;20035;-74
2022/08/01 00:22:31;;;;;;;1999.90;999.90;;;17.70;99.90;;;;;;5124254;27;20034;-74
2022/08/01 00:24:57;;;;;;;1999.90;999.90;;;17.70;99.90;;;;;;5128547;27;20111;-74
2022/08/01 00:27:22;;;;;;;1999.90;999.90;;;17.80;99.90;;;;;;5125074;27;20046;-74
2022/08/01 00:29:48;;;;;;;1999.90;999.90;;;17.70;99.90;;;;;;5126567;27;20047;-75
2022/08/01 00:32:14;;;;;;;1999.90;999.90;;;17.70;99.90;;;;;;5129921;27;20039;-74
2022/08/01 00:34:39;;;;;;;1999.90;999.90;;;17.70;99.90;;;;;;5091700;28;20043;-74
2022/08/01 00:37:05;;;;;;;1999.90;999.90;;;17.70;99.90;;;;;;5104150;28;20035;-74
2022/08/01 00:39:32;;;;;;;1999.90;999.90;;;17.80;99.90;;;;;;5097046;28;20075;-75
2022/08/01 00:41:59;;;;;;;1999.90;999.90;;;17.80;99.90;;;;;;5118932;27;20372;-75
2022/08/01 00:44:24;;;;;;;1999.90;999.90;;;17.70;99.90;;;;;;5116211;27;20046;-74
2022/08/01 00:46:50;;;;;;;1999.90;999.90;;;17.70;99.90;;;;;;5090392;28;20042;-74
2022/08/01 00:49:15;;;;;;;1999.90;999.90;;;17.70;99.90;;;;;;5098130;28;20129;-74
2022/08/01 00:51:41;;;;;;;1999.90;999.90;;;17.70;99.90;;;;;;5127748;27;20058;-74
2022/08/01 00:54:07;;;;;;;1999.90;999.90;;;17.70;99.90;;;;;;5103772;28;20534;-74
2022/08/01 00:56:33;;;;;;;1999.90;999.90;;;17.60;99.90;;;;;;5115039;27;20519;-74
2022/08/01 00:58:59;;;;;;;1999.90;999.90;;;17.60;99.90;;;;;;5120540;27;20460;-74
2022/08/01 01:01:24;;;;;;;1999.90;999.90;;;17.60;99.90;;;;;;5118942;28;20035;-75
2022/08/01 01:03:51;;;;;;;1999.90;999.90;;;17.60;99.90;;;;;;5127959;27;20039;-74
2022/08/01 01:06:30;;;;;;;1999.90;999.90;;;17.60;99.90;;;;;;5125652;27;20039;-74
2022/08/01 01:09:22;;;;;;;1999.90;999.90;;;17.60;99.90;;;;;;5123083;27;20039;-75
2022/08/01 01:11:54;;;;;;;1999.90;999.90;;;17.60;99.90;;;;;;5118666;27;20126;-74
2022/08/01 01:15:06;;;;;;;1999.90;999.90;;;17.60;99.90;;;;;;5117052;27;20039;-75
2022/08/01 01:18:00;;;;;;;1999.90;999.90;;;17.60;99.90;;;;;;5058602;27;20066;-74
2022/08/01 01:20:35;;;;;;;1999.90;999.90;;;17.60;99.90;;;;;;5103993;28;20536;-75
2022/08/01 01:23:28;;;;;;;1999.90;999.90;;;17.60;99.90;;;;;;5098421;28;20064;-75
2022/08/01 01:26:10;;;;;;;;;;;17.60;99.90;;;;;;5121247;27;20043;-75
2022/08/01 01:28:54;;;;;;;1999.90;999.90;;;17.60;99.90;;;;;;5087887;28;20276;-75
2022/08/01 01:31:23;;;;;;;1999.90;999.90;;;17.60;99.90;;;;;;5108853;28;20046;-75
2022/08/01 01:33:50;;;;;;;1999.90;999.90;;;17.60;99.90;;;;;;5124795;27;20035;-75
2022/08/01 01:36:17;;;;;;;1999.90;999.90;;;17.60;99.90;;;;;;5124695;27;20475;-75
2022/08/01 01:38:45;;;;;;;1999.90;999.90;;;17.60;99.90;;;;;;5126542;27;20406;-75
2022/08/01 01:41:12;;;;;;;1999.90;999.90;;;17.50;99.90;;;;;;5126029;27;20043;-76
2022/08/01 01:43:39;;;;;;;1999.90;999.90;;;17.50;99.90;;;;;;5111177;27;20035;-76
2022/08/01 01:46:06;;;;;;;1999.90;999.90;;;17.50;99.90;;;;;;5112244;27;20093;-75
2022/08/01 01:48:33;;;;;;;1999.90;999.90;;;17.40;99.90;;;;;;5097819;27;20192;-75
2022/08/01 01:51:00;;;;;;;1999.90;999.90;;;17.40;99.90;;;;;;5112669;27;20035;-76
2022/08/01 01:53:27;;;;;;;1999.90;999.90;;;17.40;99.90;;;;;;5119155;27;20032;-75
2022/08/01 01:55:55;;;;;;;1999.90;999.90;;;17.40;99.90;;;;;;5129808;27;20817;-76
2022/08/01 01:58:22;;;;;;;1999.90;999.90;;;17.40;99.90;;;;;;5124451;27;20547;-76
2022/08/01 02:00:50;;;;;;;1999.90;999.90;;;17.40;99.90;;;;;;5131199;27;20880;-77
2022/08/01 02:03:18;;;;;;;1999.90;999.90;;;17.30;99.90;;;;;;5132482;27;20027;-76
2022/08/01 02:05:44;;;;;;;1999.90;999.90;;;17.30;99.90;;;;;;5095071;27;20035;-75
2022/08/01 02:08:12;;;;;;;1999.90;999.90;;;17.30;99.90;;;;;;5130731;27;20500;-75
2022/08/01 02:10:39;;;;;;;1999.90;999.90;;;17.20;99.90;;;;;;5124673;27;20047;-76
2022/08/01 02:13:08;;;;;;;1999.90;999.90;;;17.20;99.90;;;;;;5125201;27;20108;-76
2022/08/01 02:15:39;;;;;;;1999.90;999.90;;;17.20;99.90;;;;;;5111212;27;20096;-76
2022/08/01 02:18:07;;;;;;;1999.90;999.90;;;17.20;99.90;;;;;;5116876;27;20140;-76
2022/08/01 02:20:36;;;;;;;1999.90;999.90;;;17.10;99.90;;;;;;5106660;27;20039;-76
2022/08/01 02:23:08;;;;;;;1999.90;999.90;;;17.10;99.90;;;;;;5121858;27;20118;-76
2022/08/01 02:25:50;;;;;;;1999.90;999.90;;;17.10;99.90;;;;;;5127951;27;20459;-76
2022/08/01 02:28:29;;;;;;;1999.90;999.90;;;17.10;99.90;;;;;;5094831;27;20438;-76
2022/08/01 02:31:06;;;;;;;1999.90;999.90;;;17.10;99.90;;;;;;5129829;27;20047;-76
2022/08/01 02:33:38;;;;;;;1999.90;999.90;;;17.10;99.90;;;;;;5118844;27;20050;-76
2022/08/01 02:36:05;;;;;;;1999.90;999.90;;;17.00;99.90;;;;;;5129931;27;20049;-76
2022/08/01 02:38:34;;;;;;;1999.90;999.90;;;17.00;99.90;;;;;;5119209;27;20407;-76
2022/08/01 02:41:12;;;;;;;1999.90;999.90;;;16.90;99.90;;;;;;5106579;27;20137;-76
2022/08/01 02:43:43;;;;;;;1999.90;999.90;;;17.00;99.90;;;;;;5112991;27;20055;-76
2022/08/01 02:46:15;;;;;;;1999.90;999.90;;;16.90;99.90;;;;;;5126358;27;20510;-76
2022/08/01 02:48:42;;;;;;;1999.90;999.90;;;16.90;99.90;;;;;;5122309;27;20035;-76
2022/08/01 02:51:08;;;;;;;1999.90;999.90;;;16.80;99.90;;;;;;5109606;27;20100;-77
2022/08/01 02:53:38;;;;;;;1999.90;999.90;;;16.80;99.90;;;;;;5126388;27;20344;-76
2022/08/01 02:56:05;;;;;;;1999.90;999.90;;;16.80;99.90;;;;;;5124214;27;20031;-76
2022/08/01 02:58:33;;;;;;;1999.90;999.90;;;16.80;99.90;;;;;;5126160;27;20043;-76
2022/08/01 03:00:59;;;;;;;1999.90;999.90;;;16.70;99.90;;;;;;5109376;27;20069;-76
2022/08/01 03:03:25;;;;;;;1999.90;999.90;;;16.70;99.90;;;;;;5114613;27;20489;-76
2022/08/01 03:05:51;;;;;;;1999.90;999.90;;;16.70;99.90;;;;;;5093153;27;20043;-76
2022/08/01 03:08:20;;;;;;;1999.90;999.90;;;16.80;99.90;;;;;;5110457;27;20059;-76
2022/08/01 03:10:47;;;;;;;1999.90;999.90;;;16.70;99.90;;;;;;5109768;27;20053;-76
2022/08/01 03:13:14;;;;;;;1999.90;999.90;;;16.70;99.90;;;;;;5122943;27;20057;-76
2022/08/01 03:15:42;;;;;;;1999.90;999.90;;;16.70;99.90;;;;;;5114827;27;20039;-76
2022/08/01 03:18:10;;;;;;;1999.90;999.90;;;16.70;99.90;;;;;;5090760;27;20124;-76
2022/08/01 03:20:35;;;;;;;1999.90;999.90;;;16.70;99.90;;;;;;5128980;27;20031;-76
2022/08/01 03:23:08;;;;;;;1999.90;999.90;;;16.60;99.90;;;;;;5126060;27;20458;-77
2022/08/01 03:25:37;;;;;;;1999.90;999.90;;;16.60;99.90;;;;;;5115339;27;20068;-77
2022/08/01 03:28:05;;;;;;;1999.90;999.90;;;16.70;99.90;;;;;;5108202;27;20038;-76
2022/08/01 03:30:32;;;;;;;1999.90;999.90;;;16.60;99.90;;;;;;5105346;27;20122;-78
2022/08/01 03:32:59;;;;;;;1999.90;999.90;;;16.60;99.90;;;;;;5104047;27;20035;-77
2022/08/01 03:35:30;;;;;;;1999.90;999.90;;;16.60;99.90;;;;;;5116862;27;20050;-77
2022/08/01 03:37:59;;;;;;;1999.90;999.90;;;16.60;99.90;;;;;;5090722;27;20035;-76
2022/08/01 03:40:54;;;;;;;1999.90;999.90;;;16.60;99.90;;;;;;5094841;28;20058;-76
2022/08/01 03:43:35;;;;;;;1999.90;999.90;;;16.60;99.90;;;;;;5105231;27;20096;-77
2022/08/01 03:46:07;;;;;;;1999.90;999.90;;;16.50;99.90;;;;;;5118311;27;20039;-77
2022/08/01 03:48:39;;;;;;;1999.90;999.90;;;16.50;99.90;;;;;;5123725;27;20117;-76
2022/08/01 03:51:07;;;;;;;1999.90;999.90;;;16.50;99.90;;;;;;5126573;27;20036;-77
2022/08/01 03:53:34;;;;;;;1999.90;999.90;;;16.50;99.90;;;;;;5091261;27;20042;-77
2022/08/01 03:56:02;;;;;;;1999.90;999.90;;;16.50;99.90;;;;;;5113550;27;20112;-77
2022/08/01 03:58:29;;;;;;;1999.90;999.90;;;16.40;99.90;;;;;;5126547;27;20028;-76
2022/08/01 04:00:55;;;;;;;1999.90;999.90;;;16.40;99.90;;;;;;5093577;27;20043;-76
2022/08/01 04:03:21;;;;;;;1999.90;999.90;;;16.40;99.90;;;;;;5129526;27;20042;-77
2022/08/01 04:05:46;;;;;;;1999.90;999.90;;;16.40;99.90;;;;;;5109487;27;20051;-77
2022/08/01 04:08:12;;;;;;;1999.90;999.90;;;16.40;99.90;;;;;;5125174;27;20394;-76
2022/08/01 04:10:38;;;;;;;1999.90;999.90;;;16.30;99.90;;;;;;5127645;27;20106;-77
2022/08/01 04:13:04;;;;;;;1999.90;999.90;;;16.30;99.90;;;;;;5127861;27;20103;-78
2022/08/01 04:15:29;;;;;;;1999.90;999.90;;;16.30;99.90;;;;;;5110441;27;20474;-77
2022/08/01 04:17:55;;;;;;;1999.90;999.90;;;16.30;99.90;;;;;;5096181;28;20118;-77
2022/08/01 04:20:21;;;;;;;1999.90;999.90;;;16.30;99.90;;;;;;5128717;27;20031;-78
2022/08/01 04:22:46;;;;;;;1999.90;999.90;;;16.30;99.90;;;;;;5121034;27;20089;-78
2022/08/01 04:25:34;;;;;;;1999.90;999.90;;;16.30;99.90;;;;;;5120749;27;20546;-77
2022/08/01 04:28:03;;;;;;;1999.90;999.90;;;16.30;99.90;;;;;;5116317;27;20077;-77
2022/08/01 04:30:33;;;;;;;1999.90;999.90;;;16.20;99.90;;;;;;5124565;27;20070;-76
2022/08/01 04:33:00;;;;;;;1999.90;999.90;;;16.20;99.90;;;;;;5119191;27;20031;-77
2022/08/01 04:35:27;;;;;;;1999.90;999.90;;;16.20;99.90;;;;;;5127726;27;20049;-77
2022/08/01 04:37:53;;;;;;;1999.90;999.90;;;16.20;99.90;;;;;;5121751;27;20039;-77
2022/08/01 04:40:21;;;;;;;1999.90;999.90;;;16.10;99.90;;;;;;5125142;27;20086;-76
2022/08/01 04:42:48;;;;;;;1999.90;999.90;;;16.10;99.90;;;;;;5124686;27;20107;-77
2022/08/01 04:45:15;;;;;;;1999.90;999.90;;;16.10;99.90;;;;;;5127417;27;20038;-77
2022/08/01 04:47:42;;;;;;;1999.90;999.90;;;16.10;99.90;;;;;;5099584;28;20478;-78
2022/08/01 04:50:09;;;;;;;1999.90;999.90;;;16.10;99.90;;;;;;5120118;27;20048;-77
2022/08/01 04:52:36;;;;;;;1999.90;999.90;;;16.10;99.90;;;;;;5125093;27;20043;-76
2022/08/01 04:55:04;;;;;;;1999.90;999.90;;;16.10;99.90;;;;;;5126349;27;20035;-76
2022/08/01 04:57:30;;;;;;;1999.90;999.90;;;16.10;99.90;;;;;;5120350;27;20047;-77
2022/08/01 04:59:59;;;;;;;1999.90;999.90;;;16.10;99.90;;;;;;5128212;27;20043;-77
2022/08/01 05:02:27;;;;;;;1999.90;999.90;;;16.10;99.90;;;;;;5096015;28;20503;-76
2022/08/01 05:04:54;;;;;;;1999.90;999.90;;;16.10;99.90;;;;;;5108382;28;20035;-77
2022/08/01 05:07:20;;;;;;;1999.90;999.90;;;16.10;99.90;;;;;;5126257;27;20047;-76
2022/08/01 05:09:46;;;;;;;1999.90;999.90;;;16.20;99.90;;;;;;5127149;27;20046;-76
2022/08/01 05:12:12;;;;;;;1999.90;999.90;;;16.20;99.90;;;;;;5126376;27;20038;-76
2022/08/01 05:14:38;;;;;;;1999.90;999.90;;;16.20;99.90;;;;;;5127053;27;20039;-77
2022/08/01 05:17:06;;;;;;;1999.90;999.90;;;16.20;99.90;;;;;;5115904;27;20125;-77
2022/08/01 05:19:33;;;;;;;1999.90;999.90;;;16.20;99.90;;;;;;5112508;27;20364;-76
2022/08/01 05:22:00;;;;;;;1999.90;999.90;;;16.20;99.90;;;;;;5133561;27;20092;-77
2022/08/01 05:24:29;;;;;;;1999.90;999.90;;;16.20;99.90;;;;;;5106779;27;20519;-77
2022/08/01 05:26:58;;;;;;;1999.90;999.90;;;16.10;99.90;;;;;;5097557;27;20050;-76
2022/08/01 05:29:25;;;;;;;1999.90;999.90;;;16.10;99.90;;;;;;5129191;27;20446;-77
2022/08/01 05:31:51;;;;;;;1999.90;999.90;;;16.10;99.90;;;;;;5119889;27;20078;-76
2022/08/01 05:34:17;;;;;;;1999.90;999.90;;;16.10;99.90;;;;;;5120172;27;20039;-77
2022/08/01 05:36:42;;;;;;;1999.90;999.90;;;16.10;99.90;;;;;;5131347;27;20036;-77
2022/08/01 05:39:08;;;;;;;1999.90;999.90;;;16.10;99.90;;;;;;5119365;27;20108;-76
2022/08/01 05:41:36;;;;;;;1999.90;999.90;;;16.10;99.90;;;;;;5101535;27;20050;-76
2022/08/01 05:44:01;;;;;;;1999.90;999.90;;;16.10;99.90;;;;;;5141868;27;20027;-77
2022/08/01 05:46:30;;;;;;;1999.90;999.90;;;16.10;99.90;;;;;;5135387;27;20128;-77
2022/08/01 05:48:56;;;;;;;1999.90;999.90;;;16.20;99.90;;;;;;5118954;27;20035;-76
2022/08/01 05:51:22;;;;;;;1999.90;999.90;;;16.10;99.90;;;;;;5117992;27;20514;-76
2022/08/01 05:53:48;;;;;;;1999.90;999.90;;;16.10;99.90;;;;;;5132751;27;20122;-77
2022/08/01 05:56:13;;;;;;;1999.90;999.90;;;16.20;99.90;;;;;;5129315;27;20031;-77
2022/08/01 05:58:39;;;;;;;1999.90;999.90;;;16.10;99.90;;;;;;5124574;27;20467;-77
2022/08/01 06:01:04;;;;;;;1999.90;999.90;;;16.20;99.90;;;;;;5131516;27;20487;-76
2022/08/01 06:03:31;;;;;;;1999.90;999.90;;;16.20;99.90;;;;;;5106200;27;20039;-77
2022/08/01 06:05:57;;;;;;;1999.90;999.90;;;16.20;99.90;;;;;;5114567;27;20051;-77
2022/08/01 06:08:23;;;;;;;1999.90;999.90;;;16.30;99.90;;;;;;5119073;27;20043;-77
2022/08/01 06:10:48;;;;;;;1999.90;999.90;;;16.30;99.90;;;;;;5119272;27;20427;-77
2022/08/01 06:13:14;;;;;;;1999.90;999.90;;;16.30;99.90;;;;;;5097769;28;20035;-77
2022/08/01 06:15:40;;;;;;;1999.90;999.90;;;16.30;99.90;;;;;;5107545;27;20067;-77
2022/08/01 06:18:05;;;;;;;1999.90;999.90;;;16.30;99.90;;;;;;5117546;27;20696;-77
2022/08/01 06:20:31;;;;;;;1999.90;999.90;;;16.30;99.90;;;;;;5128213;27;20497;-77
2022/08/01 06:22:57;;;;;;;1999.90;999.90;;;16.40;99.90;;;;;;5109679;27;20038;-77
2022/08/01 06:25:23;;;;;;;1999.90;999.90;;;16.40;99.90;;;;;;5147229;27;20039;-76
2022/08/01 06:27:49;;;;;;;1999.90;999.90;;;16.40;99.90;;;;;;5128428;27;20075;-77
2022/08/01 06:30:15;;;;;;;1999.90;999.90;;;16.40;99.90;;;;;;5149609;27;20063;-77
2022/08/01 06:32:40;;;;;;;1999.90;999.90;;;16.50;99.90;;;;;;5108377;27;20038;-77
2022/08/01 06:35:07;;;;;;;1999.90;999.90;;;16.50;99.90;;;;;;5124876;27;20039;-77
2022/08/01 06:37:32;;;;;;;1999.90;999.90;;;16.60;99.90;;;;;;5114974;27;20394;-77
2022/08/01 06:40:06;;;;;;;1999.90;999.90;;;16.60;99.90;;;;;;5148361;27;20047;-77
2022/08/01 06:42:35;;;;;;;1999.90;999.90;;;16.60;99.90;;;;;;5105891;27;20051;-78
2022/08/01 06:45:05;;;;;;;1999.90;999.90;;;16.70;99.90;;;;;;5148255;27;20038;-77
2022/08/01 06:47:31;;;;;;;1999.90;999.90;;;16.80;99.90;;;;;;5128689;27;20039;-78
2022/08/01 06:49:57;;;;;;;1999.90;999.90;;;16.80;99.90;;;;;;5123171;27;20495;-77
2022/08/01 06:52:22;;;;;;;1999.90;999.90;;;16.90;99.90;;;;;;5131198;27;20131;-77
2022/08/01 06:54:48;;;;;;;1999.90;999.90;;;17.00;99.90;;;;;;5130358;27;20044;-77
2022/08/01 06:57:13;;;;;;;1999.90;999.90;;;17.10;99.90;;;;;;5115424;27;20084;-77
2022/08/01 06:59:39;;;;;;;1999.90;999.90;;;17.10;99.90;;;;;;5131152;27;20035;-77
2022/08/01 07:02:06;;;;;;;1999.90;999.90;;;17.20;99.90;;;;;;5107819;27;20031;-77
2022/08/01 07:04:32;;;;;;;1999.90;999.90;;;17.30;99.90;;;;;;5112513;27;20407;-77
2022/08/01 07:06:58;;;;;;;1999.90;999.90;;;17.40;99.90;;;;;;5106373;28;20039;-77
2022/08/01 07:09:23;;;;;;;1999.90;999.90;;;17.50;99.90;;;;;;5114909;27;20036;-79
2022/08/01 07:11:50;;;;;;;1999.90;999.90;;;17.60;99.90;;;;;;5111872;27;20100;-76
2022/08/01 07:14:16;;;;;;;1999.90;999.90;;;17.70;99.90;;;;;;5125229;27;20045;-77
2022/08/01 07:16:41;;;;;;;1999.90;999.90;;;17.80;99.90;;;;;;5113550;27;20047;-79
2022/08/01 07:19:07;;;;;;;1999.90;999.90;;;17.90;99.90;;;;;;5128872;27;20031;-78
2022/08/01 07:21:33;;;;;;;1999.90;999.90;;;18.00;99.90;;;;;;5131099;27;20521;-79
2022/08/01 07:23:59;;;;;;;1999.90;999.90;;;18.00;99.90;;;;;;5130487;27;20106;-78
2022/08/01 07:26:24;;;;;;;1999.90;999.90;;;18.00;99.90;;;;;;5120531;27;20125;-77
2022/08/01 07:28:50;;;;;;;1999.90;999.90;;;18.10;99.90;;;;;;5126263;27;20067;-77
2022/08/01 07:31:16;;;;;;;1999.90;999.90;;;18.20;99.90;;;;;;5130719;27;20045;-78
2022/08/01 07:33:41;;;;;;;1999.90;999.90;;;18.30;99.90;;;;;;5130467;27;20035;-78
2022/08/01 07:36:07;;;;;;;1999.90;999.90;;;18.40;99.90;;;;;;5130678;27;20066;-78
2022/08/01 07:38:32;;;;;;;1999.90;999.90;;;18.40;99.90;;;;;;5122859;27;20138;-77
2022/08/01 07:40:58;;;;;;;1999.90;999.90;;;18.30;99.90;;;;;;5129559;27;20118;-78
2022/08/01 07:43:24;;;;;;;1999.90;999.90;;;18.50;99.90;;;;;;5130191;27;20046;-78
2022/08/01 07:45:49;;;;;;;1999.90;999.90;;;18.80;99.90;;;;;;5101448;28;20458;-79
2022/08/01 07:48:15;;;;;;;1999.90;999.90;;;19.00;99.90;;;;;;5111892;27;20051;-78
2022/08/01 07:50:41;;;;;;;1999.90;999.90;;;19.00;99.90;;;;;;5130782;27;20692;-79
2022/08/01 07:53:06;;;;;;;1999.90;999.90;;;18.90;99.90;;;;;;5111175;27;20504;-78
2022/08/01 07:55:32;;;;;;;1999.90;999.90;;;18.80;99.90;;;;;;5122191;27;20039;-78
2022/08/01 07:57:57;;;;;;;1999.90;999.90;;;18.70;99.90;;;;;;5128687;27;20490;-78
2022/08/01 08:00:23;;;;;;;1999.90;999.90;;;18.60;99.90;;;;;;5126723;27;20094;-80
2022/08/01 08:02:49;;;;;;;1999.90;999.90;;;18.60;99.90;;;;;;5119325;27;20031;-79
2022/08/01 08:05:15;;;;;;;1999.90;999.90;;;18.60;99.90;;;;;;5127731;27;20046;-78
2022/08/01 08:07:40;;;;;;;1999.90;999.90;;;18.70;99.90;;;;;;5119505;27;20555;-78
2022/08/01 08:10:06;;;;;;;1999.90;999.90;;;18.80;99.90;;;;;;5123642;27;20046;-80
2022/08/01 08:12:32;;;;;;;1999.90;999.90;;;18.90;99.90;;;;;;5102404;27;20096;-79
2022/08/01 08:15:00;;;;;;;1999.90;999.90;;;19.00;99.90;;;;;;5125402;27;20047;-79
2022/08/01 08:17:26;;;;;;;1999.90;999.90;;;19.00;99.90;;;;;;5111539;27;20207;-79
2022/08/01 08:19:51;;;;;;;1999.90;999.90;;;19.10;99.90;;;;;;5127875;27;20042;-77
2022/08/01 08:22:17;;;;;;;1999.90;999.90;;;19.10;99.90;;;;;;5120510;27;20035;-77
2022/08/01 08:24:43;;;;;;;1999.90;999.90;;;19.10;99.90;;;;;;5111858;27;20031;-79
2022/08/01 08:27:09;;;;;;;1999.90;999.90;;;19.10;99.90;;;;;;5109550;27;20061;-79
2022/08/01 08:29:35;;;;;;;1999.90;999.90;;;19.10;99.90;;;;;;5128240;27;20657;-78
2022/08/01 08:32:01;;;;;;;1999.90;999.90;;;19.00;99.90;;;;;;5118648;27;20038;-78
2022/08/01 08:34:27;;;;;;;1999.90;999.90;;;19.10;99.90;;;;;;5084402;28;20083;-79
2022/08/01 08:36:54;;;;;;;1999.90;999.90;;;19.20;99.90;;;;;;5106035;27;20392;-79
2022/08/01 08:39:20;;;;;;;1999.90;999.90;;;19.30;99.90;;;;;;5084624;28;20052;-79
2022/08/01 08:41:47;;;;;;;1999.90;999.90;;;19.90;99.90;;;;;;5099662;28;20169;-79
2022/08/01 08:44:12;;;;;;;1999.90;999.90;;;20.20;99.90;;;;;;5080221;28;20146;-78
2022/08/01 08:46:51;;;;;;;1999.90;999.90;;;20.40;99.90;;;;;;5101194;28;20262;-80
2022/08/01 08:49:22;;;;;;;1999.90;999.90;;;20.60;99.90;;;;;;5109068;28;20035;-80
2022/08/01 08:51:50;;;;;;;1999.90;999.90;;;20.90;99.90;;;;;;5096113;28;20043;-79
2022/08/01 08:54:17;;;;;;;1999.90;999.90;;;21.30;99.90;;;;;;5101383;28;20052;-79
2022/08/01 08:56:45;;;;;;;1999.90;999.90;;;21.70;99.90;;;;;;5099392;28;20174;-79
2022/08/01 08:59:13;;;;;;;1999.90;999.90;;;22.10;99.90;;;;;;5096261;28;20046;-79
2022/08/01 09:01:39;;;;;;;1999.90;999.90;;;22.40;99.90;;;;;;5101685;28;20118;-79
2022/08/01 09:04:05;;;;;;;1999.90;999.90;;;22.50;99.90;;;;;;5103831;28;20042;-79
2022/08/01 09:06:32;;;;;;;1999.90;999.90;;;22.70;99.90;;;;;;5095480;28;20411;-79
2022/08/01 09:08:59;;;;;;;1999.90;999.90;;;23.10;99.90;;;;;;5087747;28;20123;-79
2022/08/01 09:11:24;;;;;;;1999.90;999.90;;;22.90;99.90;;;;;;5113889;27;20377;-79
2022/08/01 09:14:04;;;;;;;1999.90;999.90;;;22.50;99.90;;;;;;5099689;28;20122;-78
2022/08/01 09:16:31;;;;;;;1999.90;999.90;;;22.70;99.90;;;;;;5099656;28;20046;-81
2022/08/01 09:19:33;;;;;;;1999.90;999.90;;;22.80;99.90;;;;;;5112721;28;20407;-79
2022/08/01 09:22:01;;;;;;;1999.90;999.90;;;22.20;99.90;;;;;;5013700;28;20054;-79
2022/08/01 09:24:28;;;;;;;1999.90;999.90;;;22.00;99.90;;;;;;5005181;28;20547;-79
2022/08/01 09:26:55;;;;;;;1999.90;999.90;;;22.00;99.90;;;;;;5006543;28;20073;-78
2022/08/01 09:29:27;;;;;;;1999.90;999.90;;;21.60;99.90;;;;;;5006506;28;20065;-79
2022/08/01 09:31:53;;;;;;;1999.90;999.90;;;21.60;99.90;;;;;;5006368;28;20056;-79
2022/08/01 09:34:32;;;;;;;1999.90;999.90;;;21.60;99.90;;;;;;5004769;28;20073;-79
2022/08/01 09:36:59;;;;;;;1999.90;999.90;;;22.00;99.90;;;;;;5006138;28;20050;-79
2022/08/01 09:39:30;;;;;;;1999.90;999.90;;;22.00;99.90;;;;;;5013012;28;20128;-79
2022/08/01 09:41:58;;;;;;;1999.90;999.90;;;22.00;99.90;;;;;;5019618;28;20045;-77
2022/08/01 09:44:41;;;;;;;1999.90;999.90;;;22.40;99.90;;;;;;5025533;28;20042;-77
2022/08/01 09:47:06;;;;;;;1999.90;999.90;;;22.60;99.90;;;;;;5026821;28;20763;-79
2022/08/01 09:49:34;;;;;;;1999.90;999.90;;;22.70;99.90;;;;;;5023598;28;20045;-78
2022/08/01 09:52:20;;;;;;;1999.90;999.90;;;22.80;99.90;;;;;;5026064;28;20505;-78
2022/08/01 09:54:55;;;;;;;1999.90;999.90;;;22.40;99.90;;;;;;5041279;28;20048;-78
2022/08/01 09:57:21;;;;;;;1999.90;999.90;;;22.10;99.90;;;;;;5046583;27;20941;-77
2022/08/01 09:59:50;;;;;;;1999.90;999.90;;;22.20;99.90;;;;;;5088870;27;20072;-77
2022/08/01 10:02:36;;;;;;;1999.90;999.90;;;21.90;99.90;;;;;;5124530;27;20526;-78
2022/08/01 10:05:05;;;;;;;1999.90;999.90;;;21.40;99.90;;;;;;5125830;27;20043;-78
2022/08/01 10:07:31;;;;;;;1999.90;999.90;;;20.90;99.90;;;;;;5128681;27;20479;-78
2022/08/01 10:10:09;;;;;;;1999.90;999.90;;;20.80;99.90;;;;;;5125134;27;20050;-78
2022/08/01 10:12:35;;;;;;;1999.90;999.90;;;21.20;99.90;;;;;;5127566;27;20129;-79
2022/08/01 10:15:01;;;;;;;1999.90;999.90;;;21.70;99.90;;;;;;5113650;27;20748;-79
2022/08/01 10:17:27;;;;;;;1999.90;999.90;;;22.00;99.90;;;;;;5124892;27;20070;-79
2022/08/01 10:19:55;;;;;;;1999.90;999.90;;;22.30;99.90;;;;;;5109514;27;20464;-78
2022/08/01 10:22:23;;;;;;;1999.90;999.90;;;22.40;99.90;;;;;;5114080;27;20043;-78
2022/08/01 10:24:54;;;;;;;1999.90;999.90;;;22.30;99.90;;;;;;5130789;27;20142;-78
2022/08/01 10:27:21;;;;;;;1999.90;999.90;;;21.90;99.90;;;;;;5124453;27;20436;-78
2022/08/01 10:29:55;;;;;;;1999.90;999.90;;;21.70;99.90;;;;;;5117597;27;20888;-78
2022/08/01 10:32:21;;;;;;;1999.90;999.90;;;21.80;99.90;;;;;;5131094;27;20386;-78
2022/08/01 10:34:49;;;;;;;1999.90;999.90;;;22.20;99.90;;;;;;5134172;27;20134;-78
2022/08/01 10:37:15;;;;;;;1999.90;999.90;;;22.50;99.90;;;;;;5131902;27;20023;-78
2022/08/01 10:39:41;;;;;;;1999.90;999.90;;;22.60;99.90;;;;;;5135201;27;20103;-79
2022/08/01 10:42:10;;;;;;;1999.90;999.90;;;22.70;99.90;;;;;;5117516;27;20479;-78
2022/08/01 10:44:36;;;;;;;1999.90;999.90;;;22.60;99.90;;;;;;5130944;27;20502;-77
2022/08/01 10:47:11;;;;;;;1999.90;999.90;;;22.20;99.90;;;;;;5129565;27;20040;-78
2022/08/01 10:50:04;;;;;;;1999.90;999.90;;;22.10;99.90;;;;;;5134288;27;20494;-78
2022/08/01 10:52:29;;;;;;;1999.90;999.90;;;22.20;99.90;;;;;;5122838;27;20042;-78
2022/08/01 10:55:06;;;;;;;1999.90;999.90;;;22.30;99.90;;;;;;5128536;27;20039;-78
2022/08/01 10:57:45;;;;;;;1999.90;999.90;;;22.20;99.90;;;;;;5123633;27;20037;-79
2022/08/01 11:00:18;;;;;;;1999.90;999.90;;;22.10;99.90;;;;;;5128615;27;20035;-78
2022/08/01 11:03:02;;;;;;;1999.90;999.90;;;22.00;99.90;;;;;;5122562;27;20086;-79
2022/08/01 11:05:32;;;;;;;1999.90;999.90;;;22.00;99.90;;;;;;5133759;27;20106;-79
2022/08/01 11:08:09;;;;;;;1999.90;999.90;;;21.90;99.90;;;;;;5100031;27;20096;-77
2022/08/01 11:10:39;;;;;;;1999.90;999.90;;;21.90;99.90;;;;;;5123638;27;20495;-78
2022/08/01 11:13:07;;;;;;;1999.90;999.90;;;22.20;99.90;;;;;;5129974;27;20398;-78
2022/08/01 11:15:34;;;;;;;1999.90;999.90;;;22.40;99.90;;;;;;5113838;27;20051;-78
2022/08/01 11:18:03;;;;;;;1999.90;999.90;;;22.40;99.90;;;;;;5120353;27;20477;-77
2022/08/01 11:20:33;;;;;;;1999.90;999.90;;;22.20;99.90;;;;;;5129214;27;20030;-77
2022/08/01 11:23:03;;;;;;;1999.90;999.90;;;22.20;99.90;;;;;;5120016;27;20023;-78
2022/08/01 11:25:45;;;;;;;1999.90;999.90;;;22.40;99.90;;;;;;5132854;27;20506;-78
2022/08/01 11:28:17;;;;;;;1999.90;999.90;;;22.60;99.90;;;;;;5087259;28;20043;-78
2022/08/01 11:30:44;;;;;;;1999.90;999.90;;;22.70;99.90;;;;;;5092758;27;20053;-76
2022/08/01 11:33:12;;;;;;;1999.90;999.90;;;22.60;99.90;;;;;;5110296;27;20043;-77
2022/08/01 11:35:58;;;;;;;1999.90;999.90;;;22.60;99.90;;;;;;5124583;27;20054;-78
2022/08/01 11:38:29;;;;;;;1999.90;999.90;;;22.60;99.90;;;;;;5109522;27;20054;-77
2022/08/01 11:41:21;;;;;;;1999.90;999.90;;;22.80;99.90;;;;;;5135102;27;20510;-78
2022/08/01 11:44:08;;;;;;;1999.90;999.90;;;22.80;99.90;;;;;;5131432;27;20115;-77
2022/08/01 11:46:52;;;;;;;1999.90;999.90;;;22.50;99.90;;;;;;5119200;27;20067;-77
2022/08/01 11:49:36;;;;;;;1999.90;999.90;;;22.20;99.90;;;;;;5116765;27;20041;-78
2022/08/01 11:52:12;;;;;;;1999.90;999.90;;;22.20;99.90;;;;;;5129205;27;20031;-77
2022/08/01 11:54:49;;;;;;;1999.90;999.90;;;22.10;99.60;;;;;;5129572;27;20047;-77
2022/08/01 11:57:19;;;;;;;1999.90;999.90;;;22.10;99.30;;;;;;5116389;27;20046;-78
2022/08/01 11:59:48;;;;;;;1999.90;999.90;;;22.40;99.90;;;;;;5126209;27;20110;-78
2022/08/01 12:02:34;;;;;;;1999.90;999.90;;;22.40;99.90;;;;;;5097974;27;20056;-76
2022/08/01 12:05:07;;;;;;;1999.90;999.90;;;22.30;99.90;;;;;;5081515;28;20056;-78
2022/08/01 12:07:36;;;;;;;1999.90;999.90;;;22.30;99.90;;;;;;5126842;27;20039;-77